Time;durP1;ratioP1;P1;durP2;ratioP2;P2;SDS_P1;SDS_P2;PMS_P1;PMS_P2;Temp;Humidity;BMP_temperature;BMP_pressure;BME280_temperature;BME280_humidity;BME280_pressure;Samples;Min_cycle;Max_cycle;Signal;HPM_P1;HPM_P2
2022/02/15 00:02:04;;;;;;;12.77;5.47;;;;;;;;;;5091314;28;20044;-59
2022/02/15 00:04:30;;;;;;;10.93;5.60;;;;;;;;;;5091450;28;20016;-62
2022/02/15 00:06:56;;;;;;;10.00;4.88;;;;;;;;;;5091433;28;20107;-61
2022/02/15 00:09:23;;;;;;;11.48;5.35;;;;;;;;;;5091229;28;20028;-62
2022/02/15 00:11:49;;;;;;;10.05;4.90;;;;;;;;;;5091393;28;20786;-60
2022/02/15 00:14:15;;;;;;;8.88;4.88;;;;;;;;;;5091445;28;20016;-61
2022/02/15 00:16:41;;;;;;;10.10;5.43;;;;;;;;;;5091343;28;20034;-60
2022/02/15 00:19:08;;;;;;;10.02;5.07;;;;;;;;;;5091217;28;20478;-63
2022/02/15 00:21:34;;;;;;;10.95;5.00;;;;;;;;;;5091078;28;20024;-59
2022/02/15 00:24:01;;;;;;;11.85;5.10;;;;;;;;;;5090974;28;20425;-61
2022/02/15 00:26:27;;;;;;;10.63;5.55;;;;;;;;;;5091190;28;20020;-59
2022/02/15 00:28:56;;;;;;;12.23;4.43;;;;;;;;;;5091194;28;20020;-59
2022/02/15 00:31:23;;;;;;;10.82;5.03;;;;;;;;;;5091166;28;20028;-57
2022/02/15 00:33:49;;;;;;;9.02;5.13;;;;;;;;;;5091251;28;20016;-59
2022/02/15 00:36:18;;;;;;;8.23;5.18;;;;;;;;;;5090978;28;20028;-59
2022/02/15 00:38:44;;;;;;;10.25;5.32;;;;;;;;;;5072713;28;20421;-59
2022/02/15 00:41:10;;;;;;;10.52;5.40;;;;;;;;;;5091093;28;20031;-59
2022/02/15 00:43:36;;;;;;;10.73;5.25;;;;;;;;;;5078233;28;20021;-62
2022/02/15 00:46:02;;;;;;;9.57;4.95;;;;;;;;;;5071014;28;20484;-61
2022/02/15 00:48:29;;;;;;;8.45;4.43;;;;;;;;;;5070989;28;20099;-59
2022/02/15 00:50:55;;;;;;;9.73;4.93;;;;;;;;;;5073039;28;20536;-59
2022/02/15 00:53:21;;;;;;;11.30;5.30;;;;;;;;;;5074485;28;20024;-59
2022/02/15 00:55:47;;;;;;;8.93;4.90;;;;;;;;;;5074637;28;20029;-61
2022/02/15 00:58:13;;;;;;;8.98;5.18;;;;;;;;;;5074618;28;20391;-61
2022/02/15 01:00:39;;;;;;;11.68;5.20;;;;;;;;;;5074103;28;20440;-58
2022/02/15 01:03:05;;;;;;;10.02;5.20;;;;;;;;;;5074328;28;20033;-59
2022/02/15 01:05:31;;;;;;;8.60;5.20;;;;;;;;;;5074354;28;20029;-62
2022/02/15 01:07:57;;;;;;;8.52;4.57;;;;;;;;;;5074305;28;20024;-62
2022/02/15 01:10:23;;;;;;;12.93;4.97;;;;;;;;;;5074296;28;20024;-60
2022/02/15 01:12:50;;;;;;;9.00;4.97;;;;;;;;;;5074542;28;20074;-61
2022/02/15 01:15:16;;;;;;;14.57;5.57;;;;;;;;;;5074149;28;20564;-60
2022/02/15 01:17:43;;;;;;;9.40;4.68;;;;;;;;;;5074406;28;20510;-75
2022/02/15 01:20:10;;;;;;;8.57;5.07;;;;;;;;;;5074282;28;20032;-63
2022/02/15 01:22:36;;;;;;;7.38;4.50;;;;;;;;;;5074045;28;20028;-59
2022/02/15 01:25:02;;;;;;;7.97;4.50;;;;;;;;;;5074356;28;20504;-62
2022/02/15 01:27:28;;;;;;;9.23;5.10;;;;;;;;;;5074007;28;20077;-60
2022/02/15 01:29:54;;;;;;;9.63;4.53;;;;;;;;;;5073995;28;20032;-63
2022/02/15 01:32:20;;;;;;;9.35;4.80;;;;;;;;;;5073611;28;20050;-62
2022/02/15 01:34:46;;;;;;;9.43;4.90;;;;;;;;;;5078073;28;20392;-59
2022/02/15 01:37:13;;;;;;;10.23;4.72;;;;;;;;;;5094187;28;20036;-59
2022/02/15 01:39:39;;;;;;;8.90;4.90;;;;;;;;;;5094428;28;20078;-59
2022/02/15 01:42:05;;;;;;;8.52;5.03;;;;;;;;;;5094240;28;20024;-61
2022/02/15 01:44:32;;;;;;;9.15;4.70;;;;;;;;;;5092189;28;20020;-59
2022/02/15 01:46:59;;;;;;;11.45;5.10;;;;;;;;;;5073999;28;20048;-59
2022/02/15 01:49:25;;;;;;;9.20;4.63;;;;;;;;;;5073772;28;20027;-62
2022/02/15 01:51:51;;;;;;;9.48;4.97;;;;;;;;;;5073865;28;20021;-62
2022/02/15 01:54:17;;;;;;;9.25;5.15;;;;;;;;;;5073829;28;20506;-59
2022/02/15 01:56:43;;;;;;;8.60;5.10;;;;;;;;;;5073648;28;20044;-62
2022/02/15 01:59:10;;;;;;;10.02;5.30;;;;;;;;;;5073710;28;20024;-61
2022/02/15 02:01:36;;;;;;;6.30;4.07;;;;;;;;;;5072857;28;20479;-59
2022/02/15 02:04:02;;;;;;;10.20;5.35;;;;;;;;;;5073359;28;20047;-64
2022/02/15 02:06:28;;;;;;;8.77;4.82;;;;;;;;;;5073620;28;20028;-62
2022/02/15 02:08:54;;;;;;;9.02;5.20;;;;;;;;;;5085752;28;20407;-61
2022/02/15 02:11:20;;;;;;;7.47;4.70;;;;;;;;;;5093435;28;20024;-59
2022/02/15 02:13:46;;;;;;;8.50;4.45;;;;;;;;;;5092947;28;20021;-61
2022/02/15 02:16:12;;;;;;;7.78;4.30;;;;;;;;;;5074553;28;20028;-60
2022/02/15 02:18:39;;;;;;;9.68;5.00;;;;;;;;;;5093562;28;20028;-62
2022/02/15 02:21:05;;;;;;;9.20;4.75;;;;;;;;;;5093339;28;20028;-60
2022/02/15 02:23:31;;;;;;;10.68;4.85;;;;;;;;;;5093460;28;20088;-64
2022/02/15 02:25:57;;;;;;;11.30;4.82;;;;;;;;;;5093389;28;20513;-60
2022/02/15 02:28:24;;;;;;;9.30;5.40;;;;;;;;;;5093770;28;20103;-60
2022/02/15 02:30:50;;;;;;;8.45;4.68;;;;;;;;;;5093361;28;20027;-65
2022/02/15 02:33:17;;;;;;;8.80;5.13;;;;;;;;;;5093324;28;20051;-59
2022/02/15 02:35:43;;;;;;;9.18;5.03;;;;;;;;;;5075220;28;20043;-59
2022/02/15 02:38:09;;;;;;;8.35;5.00;;;;;;;;;;5093121;28;20021;-59
2022/02/15 02:40:35;;;;;;;6.57;4.40;;;;;;;;;;5093058;28;20059;-66
2022/02/15 02:43:01;;;;;;;9.05;3.95;;;;;;;;;;5093232;28;20107;-59
2022/02/15 02:45:28;;;;;;;8.20;5.05;;;;;;;;;;5093075;28;20103;-59
2022/02/15 02:47:55;;;;;;;9.05;4.68;;;;;;;;;;5092821;28;20023;-64
2022/02/15 02:50:24;;;;;;;9.23;5.35;;;;;;;;;;5092913;28;20024;-59
2022/02/15 02:52:50;;;;;;;8.35;5.13;;;;;;;;;;5092938;28;20020;-59
2022/02/15 02:55:17;;;;;;;10.15;4.95;;;;;;;;;;5092858;28;20020;-59
2022/02/15 02:57:43;;;;;;;7.28;4.30;;;;;;;;;;5092737;28;20625;-60
2022/02/15 03:00:10;;;;;;;10.93;5.28;;;;;;;;;;5092773;28;20028;-59
2022/02/15 03:02:37;;;;;;;8.60;4.80;;;;;;;;;;5092762;28;20507;-58
2022/02/15 03:05:03;;;;;;;8.63;4.97;;;;;;;;;;5091961;28;20016;-59
2022/02/15 03:07:30;;;;;;;7.40;4.53;;;;;;;;;;5092910;28;20044;-58
2022/02/15 03:09:56;;;;;;;8.55;4.68;;;;;;;;;;5092634;28;20086;-58
2022/02/15 03:12:22;;;;;;;7.63;4.60;;;;;;;;;;5091909;28;20021;-58
2022/02/15 03:14:48;;;;;;;8.27;4.97;;;;;;;;;;5092628;28;20066;-60
2022/02/15 03:17:16;;;;;;;8.98;4.60;;;;;;;;;;5092374;28;20483;-57
2022/02/15 03:19:42;;;;;;;7.32;4.13;;;;;;;;;;5092816;28;20066;-62
2022/02/15 03:22:08;;;;;;;8.43;3.97;;;;;;;;;;5092328;28;20077;-60
2022/02/15 03:24:35;;;;;;;7.43;4.88;;;;;;;;;;5092451;28;20052;-59
2022/02/15 03:27:01;;;;;;;9.38;5.00;;;;;;;;;;5092346;28;20018;-59
2022/02/15 03:29:27;;;;;;;9.38;5.20;;;;;;;;;;5092262;28;20059;-59
2022/02/15 03:31:53;;;;;;;7.60;4.85;;;;;;;;;;5092362;28;20028;-62
2022/02/15 03:34:19;;;;;;;9.25;4.50;;;;;;;;;;5091813;28;20039;-59
2022/02/15 03:36:45;;;;;;;7.95;4.68;;;;;;;;;;5053639;28;20056;-60
2022/02/15 03:39:11;;;;;;;6.85;4.22;;;;;;;;;;5071956;28;20392;-58
2022/02/15 03:44:33;;;;;;;9.57;5.13;;;;;;;;;;5034334;28;20025;-58
2022/02/15 03:46:59;;;;;;;7.22;4.20;;;;;;;;;;5071873;28;20020;-57
2022/02/15 03:49:25;;;;;;;9.23;5.18;;;;;;;;;;5071526;28;20035;-59
2022/02/15 03:51:52;;;;;;;8.05;4.20;;;;;;;;;;5071609;28;20031;-63
2022/02/15 03:54:18;;;;;;;7.45;4.57;;;;;;;;;;5071677;28;20094;-63
2022/02/15 03:56:44;;;;;;;7.85;4.72;;;;;;;;;;5071416;28;20064;-61
2022/02/15 03:59:10;;;;;;;7.35;4.32;;;;;;;;;;5071468;28;20357;-59
2022/02/15 04:01:36;;;;;;;9.38;4.53;;;;;;;;;;5071344;28;20040;-59
2022/02/15 04:04:03;;;;;;;7.75;4.00;;;;;;;;;;5071472;28;20086;-61
2022/02/15 04:06:29;;;;;;;8.23;4.70;;;;;;;;;;5071470;28;20082;-59
2022/02/15 04:08:55;;;;;;;10.13;5.20;;;;;;;;;;5071394;28;20027;-59
2022/02/15 04:11:21;;;;;;;7.80;4.50;;;;;;;;;;5071312;28;20039;-65
2022/02/15 04:13:47;;;;;;;7.35;4.45;;;;;;;;;;5071475;28;20027;-60
2022/02/15 04:16:13;;;;;;;8.35;4.65;;;;;;;;;;5071149;28;20021;-60
2022/02/15 04:18:43;;;;;;;8.15;4.57;;;;;;;;;;5071099;28;20021;-60
2022/02/15 04:21:11;;;;;;;7.90;4.13;;;;;;;;;;5071477;28;20011;-59
2022/02/15 04:23:37;;;;;;;7.75;4.60;;;;;;;;;;5071709;28;20037;-58
2022/02/15 04:26:03;;;;;;;9.20;5.00;;;;;;;;;;5075511;28;20404;-57
2022/02/15 04:28:29;;;;;;;6.90;4.45;;;;;;;;;;5075430;28;20024;-58
2022/02/15 04:30:55;;;;;;;8.77;5.00;;;;;;;;;;5075311;28;20023;-61
2022/02/15 04:33:21;;;;;;;9.57;4.57;;;;;;;;;;5075428;28;20021;-58
2022/02/15 04:35:47;;;;;;;8.05;4.43;;;;;;;;;;5075077;28;20040;-58
2022/02/15 04:38:13;;;;;;;8.13;4.60;;;;;;;;;;5056988;28;20112;-58
2022/02/15 04:40:39;;;;;;;8.57;4.90;;;;;;;;;;5075119;28;20384;-60
2022/02/15 04:43:05;;;;;;;8.40;4.70;;;;;;;;;;5075139;28;20471;-59
2022/02/15 04:45:31;;;;;;;8.57;4.60;;;;;;;;;;5074976;28;20069;-61
2022/02/15 04:47:57;;;;;;;8.35;4.53;;;;;;;;;;5074911;28;20383;-60
2022/02/15 04:50:23;;;;;;;7.75;4.57;;;;;;;;;;5074942;28;20027;-61
2022/02/15 04:52:50;;;;;;;8.05;4.43;;;;;;;;;;5074894;28;20051;-63
2022/02/15 04:55:17;;;;;;;8.80;4.57;;;;;;;;;;5074748;28;20052;-60
2022/02/15 04:57:43;;;;;;;7.43;4.65;;;;;;;;;;5074808;28;20156;-59
2022/02/15 05:00:10;;;;;;;8.38;5.18;;;;;;;;;;5075064;28;20021;-59
2022/02/15 05:02:36;;;;;;;7.63;4.50;;;;;;;;;;5074351;28;20099;-60
2022/02/15 05:05:02;;;;;;;5.90;4.05;;;;;;;;;;5074725;28;20514;-59
2022/02/15 05:07:29;;;;;;;7.22;4.20;;;;;;;;;;5074525;28;20476;-59
2022/02/15 05:09:55;;;;;;;10.00;5.60;;;;;;;;;;5074518;28;20025;-59
2022/02/15 05:12:21;;;;;;;6.80;4.18;;;;;;;;;;5074570;28;20052;-59
2022/02/15 05:14:47;;;;;;;9.13;4.93;;;;;;;;;;5074442;28;20056;-60
2022/02/15 05:17:13;;;;;;;8.45;5.13;;;;;;;;;;5074268;28;20028;-61
2022/02/15 05:19:40;;;;;;;7.68;4.70;;;;;;;;;;5074648;28;20042;-61
2022/02/15 05:22:06;;;;;;;8.18;4.65;;;;;;;;;;5074457;28;20029;-64
2022/02/15 05:24:32;;;;;;;8.60;4.85;;;;;;;;;;5074538;28;20025;-60
2022/02/15 05:26:58;;;;;;;9.13;4.90;;;;;;;;;;5074399;28;20021;-60
2022/02/15 05:29:24;;;;;;;8.55;4.32;;;;;;;;;;5074283;28;20047;-60
2022/02/15 05:31:50;;;;;;;8.48;4.70;;;;;;;;;;5074345;28;20411;-65
2022/02/15 05:34:16;;;;;;;7.00;4.72;;;;;;;;;;5074395;28;20099;-61
2022/02/15 05:36:43;;;;;;;6.45;4.20;;;;;;;;;;5072511;28;20032;-61
2022/02/15 05:39:09;;;;;;;7.15;4.25;;;;;;;;;;5074135;28;20020;-60
2022/02/15 05:41:35;;;;;;;9.95;4.80;;;;;;;;;;5073967;28;20390;-59
2022/02/15 05:44:01;;;;;;;8.43;5.07;;;;;;;;;;5073917;28;20023;-59
2022/02/15 05:46:27;;;;;;;9.48;4.70;;;;;;;;;;5073843;28;20056;-60
2022/02/15 05:48:53;;;;;;;7.93;4.93;;;;;;;;;;5073804;28;20021;-59
2022/02/15 05:51:19;;;;;;;9.35;5.35;;;;;;;;;;5073879;28;20494;-62
2022/02/15 05:53:45;;;;;;;7.90;4.97;;;;;;;;;;5073831;28;20027;-65
2022/02/15 05:56:11;;;;;;;9.80;5.60;;;;;;;;;;5073461;28;20035;-61
2022/02/15 05:58:38;;;;;;;8.77;4.80;;;;;;;;;;5073475;28;20021;-59
2022/02/15 06:01:06;;;;;;;8.80;5.03;;;;;;;;;;5073527;28;20025;-60
2022/02/15 06:06:17;;;;;;;7.93;4.80;;;;;;;;;;5073549;28;20055;-63
2022/02/15 06:08:43;;;;;;;9.20;4.88;;;;;;;;;;5073432;28;20028;-64
2022/02/15 06:11:09;;;;;;;6.82;4.60;;;;;;;;;;5055395;28;20548;-60
2022/02/15 06:13:35;;;;;;;8.27;4.75;;;;;;;;;;5073483;28;20025;-59
2022/02/15 06:16:01;;;;;;;9.35;5.20;;;;;;;;;;5073192;28;20029;-59
2022/02/15 06:18:27;;;;;;;9.20;5.07;;;;;;;;;;5073293;28;20070;-62
2022/02/15 06:20:53;;;;;;;8.63;5.05;;;;;;;;;;5073282;28;20155;-59
2022/02/15 06:23:20;;;;;;;7.68;4.47;;;;;;;;;;5073096;28;20544;-59
2022/02/15 06:25:46;;;;;;;9.27;5.20;;;;;;;;;;5073089;28;20052;-64
2022/02/15 06:28:12;;;;;;;9.20;4.75;;;;;;;;;;5073043;28;20025;-59
2022/02/15 06:30:38;;;;;;;8.82;5.07;;;;;;;;;;5073073;28;20106;-59
2022/02/15 06:33:04;;;;;;;9.38;5.40;;;;;;;;;;5073078;28;20028;-61
2022/02/15 06:35:30;;;;;;;8.55;5.13;;;;;;;;;;5072809;28;20048;-60
2022/02/15 06:37:56;;;;;;;8.50;4.50;;;;;;;;;;5072637;28;20031;-62
2022/02/15 06:40:22;;;;;;;8.25;5.18;;;;;;;;;;5072525;28;20013;-61
2022/02/15 06:42:48;;;;;;;8.98;4.82;;;;;;;;;;5072520;28;20024;-63
2022/02/15 06:45:15;;;;;;;7.28;4.63;;;;;;;;;;5072633;28;20024;-60
2022/02/15 06:47:42;;;;;;;9.48;5.55;;;;;;;;;;5072577;28;20480;-59
2022/02/15 06:50:08;;;;;;;8.05;4.80;;;;;;;;;;5072437;28;20033;-60
2022/02/15 06:52:34;;;;;;;8.65;5.07;;;;;;;;;;5072658;28;20074;-57
2022/02/15 06:55:00;;;;;;;8.40;4.65;;;;;;;;;;5072423;28;20027;-58
2022/02/15 06:57:26;;;;;;;9.80;4.80;;;;;;;;;;5072278;28;20417;-59
2022/02/15 06:59:52;;;;;;;9.60;5.30;;;;;;;;;;5072327;28;20024;-66
2022/02/15 07:02:18;;;;;;;8.63;4.80;;;;;;;;;;5072231;28;20052;-61
2022/02/15 07:04:48;;;;;;;8.25;5.18;;;;;;;;;;5072146;28;20022;-59
2022/02/15 07:07:15;;;;;;;7.20;4.18;;;;;;;;;;5072268;28;20598;-58
2022/02/15 07:09:41;;;;;;;8.07;4.78;;;;;;;;;;5072334;28;20052;-60
2022/02/15 07:12:08;;;;;;;8.73;5.40;;;;;;;;;;5072180;28;20040;-59
2022/02/15 07:14:35;;;;;;;8.93;5.40;;;;;;;;;;5071809;28;20027;-59
2022/02/15 07:17:01;;;;;;;15.18;5.82;;;;;;;;;;5072270;28;20094;-68
2022/02/15 07:19:29;;;;;;;11.43;5.63;;;;;;;;;;5072045;28;20038;-60
2022/02/15 07:21:58;;;;;;;8.60;5.63;;;;;;;;;;5072094;28;20028;-58
2022/02/15 07:24:24;;;;;;;8.30;4.82;;;;;;;;;;5072079;28;20108;-58
2022/02/15 07:26:51;;;;;;;11.73;5.10;;;;;;;;;;5053962;28;20021;-60
2022/02/15 07:29:17;;;;;;;9.02;4.90;;;;;;;;;;5071941;28;20020;-63
2022/02/15 07:31:43;;;;;;;9.88;4.88;;;;;;;;;;5072183;28;20033;-62
2022/02/15 07:34:09;;;;;;;11.43;6.00;;;;;;;;;;5072087;28;20040;-66
2022/02/15 07:36:35;;;;;;;9.02;5.00;;;;;;;;;;5071224;28;20556;-65
2022/02/15 07:39:01;;;;;;;22.92;6.30;;;;;;;;;;5071881;28;20150;-59
2022/02/15 07:41:28;;;;;;;10.65;5.65;;;;;;;;;;5075306;28;20039;-60
2022/02/15 07:43:55;;;;;;;14.23;6.13;;;;;;;;;;5053650;28;20046;-63
2022/02/15 07:46:21;;;;;;;11.60;5.43;;;;;;;;;;5071377;28;20024;-64
2022/02/15 07:48:47;;;;;;;14.23;5.75;;;;;;;;;;5091300;28;20028;-59
2022/02/15 07:51:13;;;;;;;15.88;5.75;;;;;;;;;;5091724;28;20094;-59
2022/02/15 07:53:39;;;;;;;10.35;5.30;;;;;;;;;;5091760;28;20040;-59
2022/02/15 07:56:05;;;;;;;8.45;5.18;;;;;;;;;;5091555;28;20028;-64
2022/02/15 07:58:31;;;;;;;9.40;4.97;;;;;;;;;;5090840;28;20110;-63
2022/02/15 08:00:58;;;;;;;9.35;5.82;;;;;;;;;;5071351;28;20071;-59
2022/02/15 08:03:25;;;;;;;9.93;5.50;;;;;;;;;;5071328;28;20052;-65
2022/02/15 08:05:51;;;;;;;11.07;5.65;;;;;;;;;;5071655;28;20040;-66
2022/02/15 08:08:17;;;;;;;19.65;6.47;;;;;;;;;;5071596;28;20040;-59
2022/02/15 08:10:44;;;;;;;10.73;5.80;;;;;;;;;;5071538;28;20365;-60
2022/02/15 08:13:10;;;;;;;9.20;5.40;;;;;;;;;;5071409;28;20028;-58
2022/02/15 08:15:41;;;;;;;8.90;5.50;;;;;;;;;;5071154;28;20078;-60
2022/02/15 08:18:07;;;;;;;10.10;5.53;;;;;;;;;;5071165;28;20088;-63
2022/02/15 08:20:36;;;;;;;10.98;5.30;;;;;;;;;;5071173;28;20349;-65
2022/02/15 08:23:02;;;;;;;8.68;5.32;;;;;;;;;;5070913;28;20028;-59
2022/02/15 08:25:28;;;;;;;8.57;5.07;;;;;;;;;;5071498;28;20410;-58
2022/02/15 08:27:55;;;;;;;9.35;5.30;;;;;;;;;;5091480;28;20028;-63
2022/02/15 08:30:21;;;;;;;9.52;4.63;;;;;;;;;;5088912;28;20570;-63
2022/02/15 08:32:47;;;;;;;10.02;5.18;;;;;;;;;;5087056;28;20551;-63
2022/02/15 08:35:15;;;;;;;9.57;5.10;;;;;;;;;;5111676;28;20055;-63
2022/02/15 08:37:41;;;;;;;13.75;5.63;;;;;;;;;;5103569;28;20024;-63
2022/02/15 08:40:08;;;;;;;8.90;5.35;;;;;;;;;;5091534;28;20030;-63
2022/02/15 08:42:34;;;;;;;9.90;4.90;;;;;;;;;;5091923;28;20024;-66
2022/02/15 08:45:00;;;;;;;12.23;5.63;;;;;;;;;;5091823;28;20399;-66
2022/02/15 08:47:26;;;;;;;11.35;6.40;;;;;;;;;;5091315;28;20111;-60
2022/02/15 08:49:53;;;;;;;9.23;5.95;;;;;;;;;;5099377;28;20102;-60
2022/02/15 08:52:29;;;;;;;8.70;5.35;;;;;;;;;;5111976;28;20019;-60
2022/02/15 08:54:55;;;;;;;11.80;5.60;;;;;;;;;;5112213;28;20153;-59
2022/02/15 08:57:21;;;;;;;10.50;5.30;;;;;;;;;;5111789;28;20035;-60
2022/02/15 08:59:53;;;;;;;8.50;5.03;;;;;;;;;;5111856;28;20020;-59
2022/02/15 09:02:19;;;;;;;11.93;5.90;;;;;;;;;;5092791;28;20043;-63
2022/02/15 09:04:45;;;;;;;8.40;4.78;;;;;;;;;;5091228;28;20024;-63
2022/02/15 09:07:11;;;;;;;9.23;5.18;;;;;;;;;;5090878;28;20036;-60
2022/02/15 09:09:37;;;;;;;14.70;6.25;;;;;;;;;;5091029;28;20020;-64
2022/02/15 09:12:04;;;;;;;10.65;5.60;;;;;;;;;;5093357;28;20483;-64
2022/02/15 09:14:30;;;;;;;11.82;5.50;;;;;;;;;;5094781;28;20042;-62
2022/02/15 09:16:59;;;;;;;10.60;5.00;;;;;;;;;;5094300;28;20066;-60
2022/02/15 09:19:25;;;;;;;9.13;5.25;;;;;;;;;;5085073;28;20016;-65
2022/02/15 09:21:51;;;;;;;10.80;5.18;;;;;;;;;;5074327;28;20024;-62
2022/02/15 09:24:18;;;;;;;9.13;5.35;;;;;;;;;;5074308;28;20379;-65
2022/02/15 09:26:44;;;;;;;9.77;4.55;;;;;;;;;;5084641;28;20023;-63
2022/02/15 09:29:11;;;;;;;9.80;4.95;;;;;;;;;;5094094;28;20409;-64
2022/02/15 09:31:38;;;;;;;10.13;6.00;;;;;;;;;;5094425;28;20028;-60
2022/02/15 09:34:07;;;;;;;9.55;5.60;;;;;;;;;;5094268;28;20529;-61
2022/02/15 09:36:33;;;;;;;10.57;5.38;;;;;;;;;;5086630;28;20515;-62
2022/02/15 09:38:59;;;;;;;8.70;4.57;;;;;;;;;;5088237;28;20084;-64
2022/02/15 09:41:28;;;;;;;9.88;4.30;;;;;;;;;;5094122;28;20026;-65
2022/02/15 09:43:54;;;;;;;9.32;4.88;;;;;;;;;;5094014;28;20021;-65
2022/02/15 09:46:20;;;;;;;8.63;4.97;;;;;;;;;;5094272;28;20134;-62
2022/02/15 09:48:46;;;;;;;15.43;4.85;;;;;;;;;;5093840;28;20081;-59
2022/02/15 09:51:13;;;;;;;8.90;4.93;;;;;;;;;;5094259;28;20095;-63
2022/02/15 09:53:39;;;;;;;8.23;4.45;;;;;;;;;;5093987;28;20024;-64
2022/02/15 09:56:06;;;;;;;9.65;4.90;;;;;;;;;;5093724;28;20028;-62
2022/02/15 09:58:35;;;;;;;7.90;4.82;;;;;;;;;;5093681;28;20479;-60
2022/02/15 10:01:01;;;;;;;11.80;5.30;;;;;;;;;;5093457;28;20031;-66
2022/02/15 10:03:28;;;;;;;8.73;4.63;;;;;;;;;;5093792;28;20035;-65
2022/02/15 10:05:54;;;;;;;7.68;4.07;;;;;;;;;;5099712;28;20413;-64
2022/02/15 10:08:31;;;;;;;10.88;4.82;;;;;;;;;;5099542;28;20501;-60
2022/02/15 10:11:07;;;;;;;7.43;4.50;;;;;;;;;;5093811;28;20410;-65
2022/02/15 10:13:40;;;;;;;7.93;4.47;;;;;;;;;;5093358;28;20483;-60
2022/02/15 10:16:06;;;;;;;9.73;4.55;;;;;;;;;;5093329;28;20034;-68
2022/02/15 10:18:36;;;;;;;7.38;4.60;;;;;;;;;;5075404;28;20475;-65
2022/02/15 10:21:02;;;;;;;12.13;5.07;;;;;;;;;;5093186;28;20039;-65
2022/02/15 10:23:30;;;;;;;19.73;4.97;;;;;;;;;;5092950;28;20066;-62
2022/02/15 10:25:56;;;;;;;9.88;4.30;;;;;;;;;;5093209;28;20368;-65
2022/02/15 10:28:30;;;;;;;10.85;5.15;;;;;;;;;;5075075;28;20024;-65
2022/02/15 10:30:57;;;;;;;10.48;4.65;;;;;;;;;;5092957;28;20682;-64
2022/02/15 10:33:30;;;;;;;7.38;3.88;;;;;;;;;;5092823;28;20028;-61
2022/02/15 10:35:59;;;;;;;13.88;6.25;;;;;;;;;;5074570;28;20476;-64
2022/02/15 10:38:45;;;;;;;6.95;4.38;;;;;;;;;;5093052;28;20036;-65
2022/02/15 10:41:16;;;;;;;10.82;4.13;;;;;;;;;;5092757;28;20020;-66
2022/02/15 10:43:47;;;;;;;10.18;4.82;;;;;;;;;;5074344;28;20028;-64
2022/02/15 10:46:17;;;;;;;9.73;5.05;;;;;;;;;;5092605;28;20073;-66
2022/02/15 10:48:44;;;;;;;9.00;5.20;;;;;;;;;;5091768;28;20025;-63
2022/02/15 10:51:10;;;;;;;7.03;4.10;;;;;;;;;;5092096;28;20016;-61
2022/02/15 10:53:36;;;;;;;27.45;5.97;;;;;;;;;;5092201;28;20491;-64
2022/02/15 10:56:03;;;;;;;14.93;5.32;;;;;;;;;;5092556;28;20031;-64
2022/02/15 10:58:30;;;;;;;10.70;4.53;;;;;;;;;;5085642;28;20036;-61
2022/02/15 11:01:01;;;;;;;9.55;5.30;;;;;;;;;;5092692;28;20051;-63
2022/02/15 11:03:31;;;;;;;11.13;4.97;;;;;;;;;;5092608;28;20134;-61
2022/02/15 11:05:58;;;;;;;10.32;5.32;;;;;;;;;;5092338;28;20029;-66
2022/02/15 11:08:24;;;;;;;10.60;4.90;;;;;;;;;;5092385;28;20020;-64
2022/02/15 11:11:09;;;;;;;8.60;4.63;;;;;;;;;;5092288;28;20394;-64
2022/02/15 11:13:36;;;;;;;10.25;5.15;;;;;;;;;;5092500;28;20120;-62
2022/02/15 11:16:03;;;;;;;10.25;5.03;;;;;;;;;;5084599;28;20062;-63
2022/02/15 11:18:30;;;;;;;8.80;4.38;;;;;;;;;;5072368;28;20103;-65
2022/02/15 11:20:59;;;;;;;8.07;4.53;;;;;;;;;;5071871;28;20024;-66
2022/02/15 11:23:29;;;;;;;10.57;5.20;;;;;;;;;;5072003;28;20056;-61
2022/02/15 11:26:11;;;;;;;8.98;4.75;;;;;;;;;;5075852;28;20456;-65
2022/02/15 11:28:56;;;;;;;8.07;4.40;;;;;;;;;;5091940;28;20048;-63
2022/02/15 11:31:54;;;;;;;7.70;4.55;;;;;;;;;;5092035;28;20019;-66
2022/02/15 11:34:31;;;;;;;10.80;5.07;;;;;;;;;;5042328;28;20039;-66
2022/02/15 11:36:57;;;;;;;6.75;4.45;;;;;;;;;;5112005;28;20042;-64
2022/02/15 11:39:24;;;;;;;7.60;4.13;;;;;;;;;;5112221;28;20023;-63
2022/02/15 11:41:52;;;;;;;6.60;3.90;;;;;;;;;;5112345;28;20110;-61
2022/02/15 11:44:47;;;;;;;7.32;4.55;;;;;;;;;;5112285;28;20096;-65
2022/02/15 11:47:13;;;;;;;6.85;3.88;;;;;;;;;;5094976;28;20114;-62
2022/02/15 11:49:52;;;;;;;8.55;4.32;;;;;;;;;;5112190;28;20024;-66
2022/02/15 11:52:18;;;;;;;6.85;3.88;;;;;;;;;;5112339;28;20035;-66
2022/02/15 11:54:44;;;;;;;7.63;3.92;;;;;;;;;;5112121;28;20023;-65
2022/02/15 11:57:10;;;;;;;7.75;4.00;;;;;;;;;;5111983;28;20075;-67
2022/02/15 11:59:36;;;;;;;7.97;3.85;;;;;;;;;;5112106;28;20028;-64
2022/02/15 12:02:04;;;;;;;6.85;3.25;;;;;;;;;;5093339;28;20403;-64
2022/02/15 12:04:30;;;;;;;6.22;3.40;;;;;;;;;;5111875;28;20077;-63
2022/02/15 12:07:00;;;;;;;7.80;3.38;;;;;;;;;;5111619;28;20032;-61
2022/02/15 12:09:38;;;;;;;7.78;3.63;;;;;;;;;;5111633;28;20023;-62
2022/02/15 12:12:04;;;;;;;6.32;3.17;;;;;;;;;;5112020;28;20054;-62
2022/02/15 12:14:31;;;;;;;6.30;3.05;;;;;;;;;;5093550;28;20023;-61
2022/02/15 12:16:58;;;;;;;6.57;3.15;;;;;;;;;;5111411;28;20043;-61
2022/02/15 12:19:25;;;;;;;6.25;2.78;;;;;;;;;;5111695;28;20022;-63
2022/02/15 12:21:52;;;;;;;6.25;3.30;;;;;;;;;;5111677;28;20470;-61
2022/02/15 12:24:18;;;;;;;6.95;3.60;;;;;;;;;;5111716;28;20080;-60
2022/02/15 12:26:44;;;;;;;7.95;3.38;;;;;;;;;;5100600;28;20040;-61
2022/02/15 12:29:12;;;;;;;6.63;3.17;;;;;;;;;;5091299;28;20028;-61
2022/02/15 12:31:38;;;;;;;6.00;2.95;;;;;;;;;;5091366;28;20035;-62
2022/02/15 12:34:05;;;;;;;5.70;2.92;;;;;;;;;;5091138;28;20066;-63
2022/02/15 12:36:31;;;;;;;6.00;3.03;;;;;;;;;;5091171;28;20032;-62
2022/02/15 12:38:57;;;;;;;4.95;3.03;;;;;;;;;;5091199;28;20459;-64
2022/02/15 12:41:23;;;;;;;5.60;2.83;;;;;;;;;;5091085;28;20426;-66
2022/02/15 12:43:59;;;;;;;6.45;2.90;;;;;;;;;;5091410;28;20059;-63
2022/02/15 12:46:26;;;;;;;8.38;3.63;;;;;;;;;;5094472;28;20016;-65
2022/02/15 12:48:52;;;;;;;6.60;2.97;;;;;;;;;;5088606;28;20028;-61
2022/02/15 12:51:19;;;;;;;5.50;2.90;;;;;;;;;;5095001;28;20374;-63
2022/02/15 12:53:49;;;;;;;6.22;3.00;;;;;;;;;;5095197;28;20089;-61
2022/02/15 12:56:15;;;;;;;5.80;3.20;;;;;;;;;;5094949;28;20024;-65
2022/02/15 12:58:48;;;;;;;5.00;2.90;;;;;;;;;;5095285;28;20028;-63
2022/02/15 13:01:18;;;;;;;5.65;3.20;;;;;;;;;;5094822;28;20024;-64
2022/02/15 13:03:45;;;;;;;5.00;2.80;;;;;;;;;;5094871;28;20046;-66
2022/02/15 13:06:12;;;;;;;7.93;3.28;;;;;;;;;;5094748;28;20278;-64
2022/02/15 13:08:45;;;;;;;5.70;2.97;;;;;;;;;;5094644;28;20124;-63
2022/02/15 13:11:11;;;;;;;6.00;2.92;;;;;;;;;;5094687;28;20530;-64
2022/02/15 13:13:37;;;;;;;5.45;2.80;;;;;;;;;;5094590;28;20024;-61
2022/02/15 13:16:04;;;;;;;6.32;2.90;;;;;;;;;;5094740;28;20445;-60
2022/02/15 13:18:40;;;;;;;4.85;2.97;;;;;;;;;;5094705;28;20017;-63
2022/02/15 13:21:11;;;;;;;6.07;3.33;;;;;;;;;;5094451;28;20039;-61
2022/02/15 13:23:38;;;;;;;5.88;3.05;;;;;;;;;;5094862;28;20020;-62
2022/02/15 13:26:09;;;;;;;6.38;3.10;;;;;;;;;;5088947;28;20013;-62
2022/02/15 13:28:42;;;;;;;7.03;3.13;;;;;;;;;;5073967;28;20024;-63
2022/02/15 13:31:09;;;;;;;6.22;3.17;;;;;;;;;;5078074;28;20556;-65
2022/02/15 13:33:48;;;;;;;5.75;2.35;;;;;;;;;;5093430;28;20036;-62
2022/02/15 13:36:14;;;;;;;14.32;2.90;;;;;;;;;;5092033;28;20111;-62
2022/02/15 13:38:40;;;;;;;21.83;4.30;;;;;;;;;;5094220;28;20024;-62
2022/02/15 13:41:07;;;;;;;13.07;3.05;;;;;;;;;;5079058;28;20016;-63
2022/02/15 13:43:33;;;;;;;8.20;3.25;;;;;;;;;;5090728;28;20419;-61
2022/02/15 13:46:00;;;;;;;11.98;2.95;;;;;;;;;;5089787;28;20069;-64
2022/02/15 13:48:26;;;;;;;9.07;2.92;;;;;;;;;;5073474;28;20422;-63
2022/02/15 13:50:53;;;;;;;28.83;3.70;;;;;;;;;;5080487;28;20024;-64
2022/02/15 13:53:19;;;;;;;10.77;2.80;;;;;;;;;;5074370;28;20375;-66
2022/02/15 13:55:47;;;;;;;10.57;3.20;;;;;;;;;;5092607;28;20500;-62
2022/02/15 13:58:14;;;;;;;8.70;3.45;;;;;;;;;;5091855;28;20158;-61
2022/02/15 14:00:40;;;;;;;13.57;3.10;;;;;;;;;;5093265;28;20103;-63
2022/02/15 14:03:06;;;;;;;8.07;3.30;;;;;;;;;;5092824;28;20043;-61
2022/02/15 14:05:32;;;;;;;11.52;3.42;;;;;;;;;;5092852;28;20016;-61
2022/02/15 14:07:59;;;;;;;11.35;2.97;;;;;;;;;;5093200;28;20028;-60
2022/02/15 14:10:25;;;;;;;7.38;2.47;;;;;;;;;;5075133;28;20456;-61
2022/02/15 14:12:51;;;;;;;7.65;3.10;;;;;;;;;;5093164;28;20024;-63
2022/02/15 14:15:18;;;;;;;11.00;3.08;;;;;;;;;;5093273;28;20047;-64
2022/02/15 14:17:47;;;;;;;10.48;2.45;;;;;;;;;;5093115;28;20082;-60
2022/02/15 14:20:17;;;;;;;8.73;2.83;;;;;;;;;;5093119;28;20070;-65
2022/02/15 14:22:44;;;;;;;7.70;3.00;;;;;;;;;;5091799;28;20055;-65
2022/02/15 14:25:11;;;;;;;7.25;3.20;;;;;;;;;;5093043;28;20016;-62
2022/02/15 14:27:38;;;;;;;7.40;3.13;;;;;;;;;;5092881;28;20024;-60
2022/02/15 14:30:05;;;;;;;7.97;3.00;;;;;;;;;;5093021;28;20111;-61
2022/02/15 14:32:31;;;;;;;5.60;2.45;;;;;;;;;;5092866;28;20114;-65
2022/02/15 14:34:58;;;;;;;10.40;2.78;;;;;;;;;;5092596;28;20103;-64
2022/02/15 14:37:24;;;;;;;11.38;3.60;;;;;;;;;;5092872;28;20040;-63
2022/02/15 14:39:50;;;;;;;7.43;2.80;;;;;;;;;;5092763;28;20024;-64
2022/02/15 14:42:16;;;;;;;8.52;2.90;;;;;;;;;;5092428;28;20020;-60
2022/02/15 14:44:43;;;;;;;12.48;2.70;;;;;;;;;;5092362;28;20055;-61
2022/02/15 14:47:09;;;;;;;8.52;2.97;;;;;;;;;;5092469;28;20503;-61